Time;durP1;ratioP1;P1;durP2;ratioP2;P2;SDS_P1;SDS_P2;PMS_P1;PMS_P2;Temp;Humidity;BMP_temperature;BMP_pressure;BME280_temperature;BME280_humidity;BME280_pressure;Samples;Min_cycle;Max_cycle;Signal;HPM_P1;HPM_P2
2024/03/31 00:01:38;;;;;;;24.10;6.13;;;;;;;;;;4927477;29;20024;-83
2024/03/31 00:04:23;;;;;;;25.83;6.45;;;;;;;;;;4925905;29;20028;-83
2024/03/31 00:07:09;;;;;;;20.73;7.18;;;;;;;;;;4925981;29;20103;-84
2024/03/31 00:09:54;;;;;;;23.98;7.65;;;;;;;;;;4906482;29;20032;-84
2024/03/31 00:12:43;;;;;;;20.58;6.72;;;;;;;;;;4919658;29;20024;-84
2024/03/31 00:15:28;;;;;;;19.52;6.72;;;;;;;;;;4920131;29;20491;-83
2024/03/31 00:18:13;;;;;;;20.48;6.20;;;;;;;;;;4920686;29;20036;-83
2024/03/31 00:20:58;;;;;;;25.98;6.20;;;;;;;;;;4920271;29;20050;-83
2024/03/31 00:23:44;;;;;;;19.95;6.90;;;;;;;;;;4919792;29;20047;-84
2024/03/31 00:26:29;;;;;;;21.55;5.93;;;;;;;;;;4906801;29;20047;-83
2024/03/31 00:29:14;;;;;;;24.05;6.45;;;;;;;;;;4919782;29;20575;-83
2024/03/31 00:31:59;;;;;;;21.95;5.75;;;;;;;;;;4923332;29;20058;-83
2024/03/31 00:34:45;;;;;;;28.95;6.28;;;;;;;;;;4925406;29;20019;-83
2024/03/31 00:37:30;;;;;;;29.27;6.68;;;;;;;;;;4925519;29;20051;-84
2024/03/31 00:40:15;;;;;;;18.38;5.95;;;;;;;;;;4925545;29;20057;-83
2024/03/31 00:43:01;;;;;;;20.35;5.20;;;;;;;;;;4925578;29;20034;-84
2024/03/31 00:45:46;;;;;;;23.83;5.22;;;;;;;;;;4938865;29;20040;-83
2024/03/31 00:48:31;;;;;;;16.52;5.43;;;;;;;;;;4925770;29;20051;-84
2024/03/31 00:51:16;;;;;;;24.70;5.60;;;;;;;;;;4925225;29;20020;-84
2024/03/31 00:54:02;;;;;;;24.88;5.60;;;;;;;;;;4939050;28;20023;-84
2024/03/31 00:56:47;;;;;;;24.92;6.25;;;;;;;;;;4906338;29;20033;-84
2024/03/31 00:59:32;;;;;;;21.92;5.15;;;;;;;;;;4925523;29;20066;-83
2024/03/31 01:02:17;;;;;;;20.55;4.82;;;;;;;;;;4938286;28;20028;-84
2024/03/31 01:05:03;;;;;;;22.83;5.55;;;;;;;;;;4920377;29;20020;-83
2024/03/31 01:07:48;;;;;;;22.67;5.05;;;;;;;;;;4909378;28;20058;-84
2024/03/31 01:10:33;;;;;;;17.75;4.93;;;;;;;;;;4938605;29;20428;-83
2024/03/31 01:13:19;;;;;;;20.67;4.65;;;;;;;;;;4938714;29;20035;-83
2024/03/31 01:16:05;;;;;;;21.42;4.40;;;;;;;;;;4938206;29;20063;-83
2024/03/31 01:18:50;;;;;;;18.13;4.70;;;;;;;;;;4924853;29;20032;-83
2024/03/31 01:21:36;;;;;;;18.35;4.75;;;;;;;;;;4927297;29;20111;-83
2024/03/31 01:24:21;;;;;;;19.48;4.90;;;;;;;;;;4944695;29;20027;-83
2024/03/31 01:27:06;;;;;;;17.20;4.18;;;;;;;;;;4931215;29;20019;-83
2024/03/31 01:29:52;;;;;;;27.77;5.35;;;;;;;;;;4931404;29;20028;-83
2024/03/31 01:32:38;;;;;;;25.95;5.45;;;;;;;;;;4931166;29;20067;-83
2024/03/31 01:35:23;;;;;;;24.85;5.95;;;;;;;;;;4931745;29;20129;-83
2024/03/31 01:38:09;;;;;;;23.95;5.80;;;;;;;;;;4931385;29;20020;-83
2024/03/31 01:40:55;;;;;;;24.17;4.90;;;;;;;;;;4931135;29;20062;-84
2024/03/31 01:43:41;;;;;;;16.20;5.47;;;;;;;;;;4931624;29;20434;-84
2024/03/31 01:46:26;;;;;;;25.73;5.60;;;;;;;;;;4930955;29;20035;-84
2024/03/31 01:49:11;;;;;;;23.70;5.20;;;;;;;;;;4931292;29;20036;-84
2024/03/31 01:51:56;;;;;;;27.63;4.93;;;;;;;;;;4925438;29;20064;-84
2024/03/31 01:54:41;;;;;;;22.33;6.63;;;;;;;;;;4912502;29;20080;-84
2024/03/31 01:57:27;;;;;;;16.65;4.53;;;;;;;;;;4911897;29;20043;-84
2024/03/31 02:00:12;;;;;;;24.50;5.10;;;;;;;;;;4924734;29;20028;-84
2024/03/31 02:02:58;;;;;;;24.83;5.50;;;;;;;;;;4915242;29;20442;-83
2024/03/31 02:05:43;;;;;;;23.73;5.10;;;;;;;;;;4915325;29;20151;-84
2024/03/31 02:08:28;;;;;;;19.92;4.07;;;;;;;;;;4936249;29;20111;-84
2024/03/31 02:11:13;;;;;;;22.10;5.40;;;;;;;;;;4933867;29;20027;-84
2024/03/31 02:13:58;;;;;;;25.85;5.43;;;;;;;;;;4946911;29;20089;-83
2024/03/31 02:16:44;;;;;;;25.45;5.68;;;;;;;;;;4933234;29;20052;-84
2024/03/31 02:19:29;;;;;;;14.07;5.03;;;;;;;;;;4933412;29;20020;-84
2024/03/31 02:22:17;;;;;;;22.00;5.35;;;;;;;;;;4947253;29;20038;-83
2024/03/31 02:25:03;;;;;;;15.27;4.78;;;;;;;;;;4914679;29;20391;-83
2024/03/31 02:27:48;;;;;;;20.30;5.22;;;;;;;;;;4914637;29;20605;-84
2024/03/31 02:30:34;;;;;;;21.58;3.83;;;;;;;;;;4914652;29;20027;-83
2024/03/31 02:33:19;;;;;;;25.10;4.70;;;;;;;;;;4912577;29;20035;-84
2024/03/31 02:36:04;;;;;;;20.77;4.80;;;;;;;;;;4911552;29;20040;-84
2024/03/31 02:38:50;;;;;;;31.25;5.00;;;;;;;;;;4930021;29;20069;-84
2024/03/31 02:41:35;;;;;;;25.40;5.63;;;;;;;;;;4943552;29;20059;-84
2024/03/31 02:44:20;;;;;;;16.73;4.05;;;;;;;;;;4930438;29;20122;-83
2024/03/31 02:47:05;;;;;;;23.50;5.63;;;;;;;;;;4930099;29;20040;-84
2024/03/31 02:49:50;;;;;;;23.80;4.63;;;;;;;;;;5000164;28;20032;-84
2024/03/31 02:52:36;;;;;;;27.45;5.03;;;;;;;;;;4930232;29;20027;-84
2024/03/31 02:55:21;;;;;;;17.95;4.95;;;;;;;;;;4930205;29;20502;-84
2024/03/31 02:58:06;;;;;;;23.45;5.00;;;;;;;;;;4929910;29;20130;-84
2024/03/31 03:00:51;;;;;;;19.60;4.68;;;;;;;;;;4929763;29;20036;-84
2024/03/31 03:03:36;;;;;;;26.00;5.60;;;;;;;;;;4927066;29;20032;-84
2024/03/31 03:06:22;;;;;;;19.15;4.32;;;;;;;;;;4927938;29;20427;-84
2024/03/31 03:09:07;;;;;;;24.85;3.95;;;;;;;;;;4926140;29;20293;-83
2024/03/31 03:11:52;;;;;;;18.73;4.57;;;;;;;;;;4926936;29;20683;-84
2024/03/31 03:14:37;;;;;;;23.10;4.60;;;;;;;;;;4927056;29;20043;-83
2024/03/31 03:17:22;;;;;;;19.10;3.75;;;;;;;;;;4926633;29;20364;-83
2024/03/31 03:20:08;;;;;;;11.93;3.40;;;;;;;;;;4926755;29;20110;-83
2024/03/31 03:22:59;;;;;;;22.25;4.72;;;;;;;;;;4926662;28;20082;-84
2024/03/31 03:25:52;;;;;;;14.65;4.00;;;;;;;;;;4926785;28;20031;-85
2024/03/31 03:28:38;;;;;;;19.80;4.22;;;;;;;;;;4926846;29;20024;-83
2024/03/31 03:31:23;;;;;;;22.48;4.13;;;;;;;;;;4926872;29;20038;-85
2024/03/31 03:34:08;;;;;;;17.13;4.55;;;;;;;;;;4926563;29;20127;-85
2024/03/31 03:36:53;;;;;;;19.15;3.88;;;;;;;;;;4913400;29;20023;-84
2024/03/31 03:39:40;;;;;;;22.65;4.18;;;;;;;;;;4926492;29;20034;-84
2024/03/31 03:42:26;;;;;;;24.38;5.40;;;;;;;;;;4940311;28;20031;-84
2024/03/31 03:45:11;;;;;;;17.23;5.65;;;;;;;;;;4925630;28;20062;-84
2024/03/31 03:47:56;;;;;;;23.58;4.95;;;;;;;;;;4926351;29;20139;-84
2024/03/31 03:50:41;;;;;;;25.17;4.43;;;;;;;;;;4926948;29;20035;-84
2024/03/31 03:53:26;;;;;;;16.33;3.67;;;;;;;;;;4926514;29;20085;-84
2024/03/31 03:56:12;;;;;;;16.90;4.55;;;;;;;;;;4927093;29;20067;-84
2024/03/31 03:59:00;;;;;;;22.27;5.30;;;;;;;;;;4936560;28;20032;-84
2024/03/31 04:01:45;;;;;;;21.50;5.05;;;;;;;;;;4921054;29;20449;-84
2024/03/31 04:04:30;;;;;;;26.67;6.25;;;;;;;;;;4907254;29;20411;-84
2024/03/31 04:07:15;;;;;;;21.92;3.85;;;;;;;;;;4907592;29;20039;-84
2024/03/31 04:10:01;;;;;;;22.73;4.15;;;;;;;;;;4934322;29;20043;-84
2024/03/31 04:12:47;;;;;;;21.23;3.97;;;;;;;;;;4907032;29;20094;-83
2024/03/31 04:15:33;;;;;;;24.23;4.18;;;;;;;;;;4981073;28;20225;-83
2024/03/31 04:18:18;;;;;;;14.30;4.20;;;;;;;;;;4925661;29;20027;-83
2024/03/31 04:21:06;;;;;;;20.17;4.90;;;;;;;;;;4928822;29;20074;-80
2024/03/31 04:23:51;;;;;;;21.08;4.43;;;;;;;;;;4930160;29;20027;-84
2024/03/31 04:26:36;;;;;;;30.27;5.63;;;;;;;;;;4929018;29;20186;-82
2024/03/31 04:29:22;;;;;;;18.00;4.03;;;;;;;;;;4934413;29;20050;-84
2024/03/31 04:32:07;;;;;;;17.58;4.53;;;;;;;;;;4938243;29;20027;-82
2024/03/31 04:34:52;;;;;;;22.08;4.30;;;;;;;;;;4934173;28;20609;-85
2024/03/31 04:37:37;;;;;;;14.05;3.92;;;;;;;;;;4926353;29;20081;-84
2024/03/31 04:40:22;;;;;;;15.55;4.03;;;;;;;;;;4939282;29;20067;-83
2024/03/31 04:43:08;;;;;;;26.85;4.78;;;;;;;;;;4939539;28;20020;-83
2024/03/31 04:46:00;;;;;;;17.05;4.32;;;;;;;;;;4925805;29;20558;-84
2024/03/31 04:48:45;;;;;;;18.25;4.20;;;;;;;;;;4925694;29;20081;-84
2024/03/31 04:51:30;;;;;;;13.73;3.58;;;;;;;;;;4925784;29;20030;-83
2024/03/31 04:54:16;;;;;;;18.70;4.45;;;;;;;;;;4925898;29;20046;-85
2024/03/31 04:57:02;;;;;;;22.38;4.93;;;;;;;;;;4925328;29;20798;-84
2024/03/31 04:59:47;;;;;;;12.98;3.78;;;;;;;;;;4915391;29;20063;-84
2024/03/31 05:02:32;;;;;;;24.48;4.03;;;;;;;;;;4919726;29;20051;-83
2024/03/31 05:05:17;;;;;;;16.08;4.50;;;;;;;;;;4919483;29;20028;-84
2024/03/31 05:08:03;;;;;;;22.20;4.32;;;;;;;;;;4924661;29;20035;-84
2024/03/31 05:10:52;;;;;;;29.38;5.20;;;;;;;;;;4925000;29;20036;-84
2024/03/31 05:13:37;;;;;;;26.17;6.40;;;;;;;;;;4906451;29;20028;-83
2024/03/31 05:16:22;;;;;;;18.98;4.90;;;;;;;;;;4906178;29;20063;-83
2024/03/31 05:19:08;;;;;;;22.08;5.70;;;;;;;;;;4906016;29;20542;-83
2024/03/31 05:21:53;;;;;;;12.93;4.30;;;;;;;;;;4906680;29;20246;-83
2024/03/31 05:24:38;;;;;;;17.08;3.60;;;;;;;;;;4906395;29;20407;-83
2024/03/31 05:27:23;;;;;;;17.75;5.78;;;;;;;;;;4906158;29;20027;-83
2024/03/31 05:30:09;;;;;;;17.92;4.07;;;;;;;;;;4906337;29;20040;-84
2024/03/31 05:32:54;;;;;;;19.00;3.65;;;;;;;;;;4905970;29;20046;-84
2024/03/31 05:35:39;;;;;;;20.25;3.30;;;;;;;;;;4905967;29;20387;-84
2024/03/31 05:38:25;;;;;;;20.58;3.92;;;;;;;;;;4925436;29;20066;-84
2024/03/31 05:41:11;;;;;;;18.10;5.70;;;;;;;;;;4925277;29;20066;-84
2024/03/31 05:43:56;;;;;;;21.30;4.25;;;;;;;;;;4938472;29;20081;-84
2024/03/31 05:46:41;;;;;;;14.00;4.35;;;;;;;;;;4938113;29;20352;-83
2024/03/31 05:49:26;;;;;;;19.85;4.00;;;;;;;;;;4924815;29;20517;-84
2024/03/31 05:52:11;;;;;;;34.28;4.97;;;;;;;;;;4925442;29;20036;-82
2024/03/31 05:54:57;;;;;;;14.38;3.75;;;;;;;;;;4937984;29;20034;-84
2024/03/31 05:57:42;;;;;;;20.27;3.88;;;;;;;;;;4924924;29;20080;-84
2024/03/31 06:00:27;;;;;;;22.30;4.10;;;;;;;;;;4922871;28;20201;-84
2024/03/31 06:03:12;;;;;;;14.30;3.85;;;;;;;;;;4906160;29;20123;-83
2024/03/31 06:05:57;;;;;;;15.45;3.83;;;;;;;;;;4905933;29;20134;-85
2024/03/31 06:08:44;;;;;;;19.83;3.47;;;;;;;;;;4917224;29;20019;-85
2024/03/31 06:11:29;;;;;;;16.40;3.92;;;;;;;;;;4927972;29;20028;-84
2024/03/31 06:14:15;;;;;;;16.00;4.00;;;;;;;;;;4928263;29;20031;-83
2024/03/31 06:17:00;;;;;;;21.85;4.68;;;;;;;;;;4927745;29;20051;-84
2024/03/31 06:19:45;;;;;;;18.48;5.03;;;;;;;;;;4927653;29;20704;-83
2024/03/31 06:22:30;;;;;;;22.20;6.30;;;;;;;;;;4927763;29;20024;-84
2024/03/31 06:25:15;;;;;;;19.80;5.75;;;;;;;;;;4927918;29;20586;-84
2024/03/31 06:28:01;;;;;;;19.35;5.50;;;;;;;;;;4952540;29;20027;-84
2024/03/31 06:30:46;;;;;;;19.10;5.47;;;;;;;;;;4927606;29;20114;-84
2024/03/31 06:33:31;;;;;;;19.45;5.20;;;;;;;;;;4927381;29;20470;-84
2024/03/31 06:36:16;;;;;;;19.13;4.03;;;;;;;;;;4927391;29;20028;-83
2024/03/31 06:39:02;;;;;;;20.42;5.90;;;;;;;;;;4921453;29;20090;-83
2024/03/31 06:41:48;;;;;;;25.30;5.40;;;;;;;;;;4908469;29;20055;-83
2024/03/31 06:44:33;;;;;;;25.17;6.95;;;;;;;;;;4921772;29;20304;-84
2024/03/31 06:47:18;;;;;;;18.25;6.43;;;;;;;;;;4908631;29;20299;-84
2024/03/31 06:50:04;;;;;;;30.67;6.55;;;;;;;;;;4908784;29;20028;-84
2024/03/31 06:52:49;;;;;;;26.92;6.13;;;;;;;;;;4908233;29;20087;-86
2024/03/31 06:55:34;;;;;;;25.20;7.28;;;;;;;;;;4922093;29;20024;-85
2024/03/31 06:58:19;;;;;;;22.23;6.40;;;;;;;;;;4908619;29;20028;-84
2024/03/31 07:01:04;;;;;;;19.92;6.15;;;;;;;;;;4907658;29;20024;-85
2024/03/31 07:03:50;;;;;;;20.15;5.50;;;;;;;;;;4909319;29;20039;-83
2024/03/31 07:06:35;;;;;;;23.50;5.88;;;;;;;;;;4914347;29;20158;-85
2024/03/31 07:09:20;;;;;;;18.02;5.47;;;;;;;;;;4926978;29;20031;-83
2024/03/31 07:12:06;;;;;;;15.18;4.80;;;;;;;;;;4940692;29;20173;-85
2024/03/31 07:14:51;;;;;;;25.38;4.88;;;;;;;;;;4939894;29;20126;-85
2024/03/31 07:17:36;;;;;;;21.77;6.20;;;;;;;;;;4926819;29;20039;-84
2024/03/31 07:20:22;;;;;;;24.33;6.05;;;;;;;;;;4939933;28;20038;-85
2024/03/31 07:23:07;;;;;;;22.35;5.18;;;;;;;;;;4926545;29;20023;-84
2024/03/31 07:25:52;;;;;;;23.48;5.63;;;;;;;;;;4926701;29;20028;-84
2024/03/31 07:28:37;;;;;;;17.00;5.00;;;;;;;;;;4926924;29;20028;-84
2024/03/31 07:31:23;;;;;;;21.48;5.45;;;;;;;;;;4926852;29;20032;-84
2024/03/31 07:34:09;;;;;;;17.92;5.60;;;;;;;;;;4913964;29;20028;-83
2024/03/31 07:36:54;;;;;;;19.33;4.13;;;;;;;;;;4926899;29;20526;-83
2024/03/31 07:39:39;;;;;;;30.90;5.25;;;;;;;;;;4926283;29;20030;-84
2024/03/31 07:42:25;;;;;;;23.80;5.82;;;;;;;;;;4939960;29;20031;-84
2024/03/31 07:45:10;;;;;;;22.08;5.82;;;;;;;;;;4939824;29;20039;-84
2024/03/31 07:47:55;;;;;;;19.58;4.72;;;;;;;;;;4926442;29;20036;-84
2024/03/31 07:50:41;;;;;;;28.80;4.72;;;;;;;;;;4926772;29;20089;-84
2024/03/31 07:53:26;;;;;;;20.88;6.03;;;;;;;;;;4926730;29;20046;-85
2024/03/31 07:56:11;;;;;;;17.02;5.30;;;;;;;;;;4926877;29;20030;-84
2024/03/31 07:58:58;;;;;;;20.08;4.47;;;;;;;;;;4923043;29;20120;-85
2024/03/31 08:01:43;;;;;;;22.13;5.25;;;;;;;;;;4921612;29;20055;-84
2024/03/31 08:04:29;;;;;;;17.67;4.25;;;;;;;;;;4926747;29;20020;-84
2024/03/31 08:07:14;;;;;;;18.05;4.38;;;;;;;;;;4926627;29;20038;-84
2024/03/31 08:10:01;;;;;;;15.57;4.53;;;;;;;;;;4926433;29;20049;-84
2024/03/31 08:12:46;;;;;;;14.60;4.88;;;;;;;;;;4926628;29;20032;-83
2024/03/31 08:15:31;;;;;;;20.33;4.45;;;;;;;;;;4939466;29;20058;-84
2024/03/31 08:18:17;;;;;;;16.67;4.13;;;;;;;;;;4939739;28;20027;-83
2024/03/31 08:21:02;;;;;;;18.65;4.43;;;;;;;;;;4926267;29;20111;-84
2024/03/31 08:23:47;;;;;;;20.65;3.88;;;;;;;;;;4939440;29;20038;-85
2024/03/31 08:26:33;;;;;;;13.15;4.07;;;;;;;;;;4923961;28;20028;-84
2024/03/31 08:29:20;;;;;;;17.00;4.65;;;;;;;;;;4907115;29;20490;-85
2024/03/31 08:32:05;;;;;;;22.92;3.75;;;;;;;;;;4906178;29;20040;-86
2024/03/31 08:34:51;;;;;;;23.73;3.95;;;;;;;;;;4907033;29;20039;-86
2024/03/31 08:37:36;;;;;;;18.88;5.50;;;;;;;;;;4895290;29;20118;-85
2024/03/31 08:40:23;;;;;;;25.10;4.53;;;;;;;;;;4939277;28;20031;-85
2024/03/31 08:43:08;;;;;;;18.60;3.90;;;;;;;;;;4939066;29;20020;-85
2024/03/31 08:45:54;;;;;;;20.40;4.95;;;;;;;;;;4926202;29;20016;-85
2024/03/31 08:48:40;;;;;;;20.38;3.97;;;;;;;;;;4925993;29;20034;-84
2024/03/31 08:51:26;;;;;;;18.88;3.55;;;;;;;;;;4926237;29;20031;-85
2024/03/31 08:54:11;;;;;;;13.18;3.83;;;;;;;;;;4926570;29;20083;-85
2024/03/31 08:56:56;;;;;;;17.02;3.45;;;;;;;;;;4926975;29;20031;-86
2024/03/31 08:59:41;;;;;;;17.00;4.88;;;;;;;;;;4925610;29;20028;-86
2024/03/31 09:02:27;;;;;;;18.33;4.10;;;;;;;;;;4925983;29;20023;-85
2024/03/31 09:05:12;;;;;;;18.63;4.13;;;;;;;;;;4913676;29;20028;-85
2024/03/31 09:07:58;;;;;;;22.10;3.65;;;;;;;;;;4926176;29;20085;-85
2024/03/31 09:10:43;;;;;;;16.45;4.05;;;;;;;;;;4925800;29;20031;-85
2024/03/31 09:13:28;;;;;;;20.90;3.97;;;;;;;;;;4925872;29;20035;-85
2024/03/31 09:16:14;;;;;;;17.70;4.70;;;;;;;;;;4938552;29;20051;-84
2024/03/31 09:19:00;;;;;;;20.00;5.03;;;;;;;;;;4925179;29;20075;-85
2024/03/31 09:21:46;;;;;;;15.52;3.72;;;;;;;;;;4925414;29;20028;-85
2024/03/31 09:24:31;;;;;;;16.88;4.22;;;;;;;;;;4925466;29;20028;-84
2024/03/31 09:27:17;;;;;;;18.48;3.42;;;;;;;;;;4925507;29;20057;-84
2024/03/31 09:30:06;;;;;;;16.83;3.55;;;;;;;;;;4938934;28;20032;-85
2024/03/31 09:32:51;;;;;;;18.08;3.97;;;;;;;;;;4925483;29;20324;-85
2024/03/31 09:35:39;;;;;;;17.25;4.22;;;;;;;;;;4925318;29;20352;-84
2024/03/31 09:38:25;;;;;;;16.73;3.40;;;;;;;;;;4925259;29;20602;-84
2024/03/31 09:41:10;;;;;;;21.45;4.13;;;;;;;;;;4938009;29;20035;-86
2024/03/31 09:43:55;;;;;;;19.95;5.03;;;;;;;;;;4927903;29;20026;-86
2024/03/31 09:46:41;;;;;;;23.13;4.00;;;;;;;;;;4941958;28;20119;-86
2024/03/31 09:49:37;;;;;;;17.45;4.25;;;;;;;;;;4928068;29;20031;-85
2024/03/31 09:52:23;;;;;;;18.88;4.45;;;;;;;;;;4928518;29;20024;-86
2024/03/31 09:55:13;;;;;;;18.73;3.53;;;;;;;;;;4909418;29;20472;-85
2024/03/31 09:57:59;;;;;;;18.40;3.92;;;;;;;;;;4896718;28;20119;-85
2024/03/31 10:00:45;;;;;;;16.67;3.65;;;;;;;;;;4918967;29;20039;-85
2024/03/31 10:03:35;;;;;;;19.63;3.97;;;;;;;;;;4922893;29;20032;-85
2024/03/31 10:06:21;;;;;;;13.82;4.10;;;;;;;;;;4909429;29;20086;-85
2024/03/31 10:09:07;;;;;;;21.73;3.78;;;;;;;;;;4922977;29;20031;-85
2024/03/31 10:11:56;;;;;;;22.13;4.53;;;;;;;;;;4941213;28;20465;-85
2024/03/31 10:14:41;;;;;;;;;;;;;;;;;;4928421;29;20054;-85
2024/03/31 10:17:27;;;;;;;18.38;4.57;;;;;;;;;;4925044;29;19964;-85
2024/03/31 10:20:14;;;;;;;18.98;4.05;;;;;;;;;;4909173;29;20075;-84
2024/03/31 10:22:59;;;;;;;17.40;4.28;;;;;;;;;;4910172;29;20052;-85
2024/03/31 10:25:44;;;;;;;20.38;4.75;;;;;;;;;;4909439;29;20479;-84
2024/03/31 10:28:31;;;;;;;14.90;3.80;;;;;;;;;;4909197;29;20036;-85
2024/03/31 10:31:17;;;;;;;20.33;3.75;;;;;;;;;;4909063;29;20031;-84
2024/03/31 10:34:02;;;;;;;18.98;4.65;;;;;;;;;;4908568;29;20043;-84
2024/03/31 10:36:47;;;;;;;19.88;3.45;;;;;;;;;;4921689;29;20036;-87
2024/03/31 10:39:34;;;;;;;16.85;3.33;;;;;;;;;;4925330;29;20039;-85
2024/03/31 10:42:21;;;;;;;21.35;3.30;;;;;;;;;;4927769;29;20086;-84
2024/03/31 10:45:07;;;;;;;18.13;4.25;;;;;;;;;;4928003;29;20492;-83
2024/03/31 10:47:54;;;;;;;21.15;3.53;;;;;;;;;;4941508;29;20047;-86
2024/03/31 10:50:42;;;;;;;19.35;3.42;;;;;;;;;;4927514;29;20054;-84
2024/03/31 10:53:28;;;;;;;22.15;3.95;;;;;;;;;;4927166;29;20501;-84
2024/03/31 10:56:13;;;;;;;18.48;3.63;;;;;;;;;;4940479;29;20366;-85
2024/03/31 10:59:05;;;;;;;17.48;3.78;;;;;;;;;;4927701;29;20024;-85
2024/03/31 11:01:50;;;;;;;23.88;5.32;;;;;;;;;;4940470;28;20028;-84
2024/03/31 11:04:35;;;;;;;25.45;4.10;;;;;;;;;;4940766;29;20037;-85
2024/03/31 11:07:21;;;;;;;19.17;4.10;;;;;;;;;;4940289;28;20031;-84
2024/03/31 11:10:08;;;;;;;19.40;3.30;;;;;;;;;;4927557;29;20070;-85
2024/03/31 11:12:53;;;;;;;23.15;4.13;;;;;;;;;;4927303;29;20147;-84
2024/03/31 11:15:39;;;;;;;15.55;3.20;;;;;;;;;;4939939;29;20062;-84
2024/03/31 11:18:24;;;;;;;18.23;4.18;;;;;;;;;;4928920;29;20386;-83
2024/03/31 11:21:14;;;;;;;15.23;3.90;;;;;;;;;;4926768;29;20032;-84
2024/03/31 11:24:00;;;;;;;22.52;4.03;;;;;;;;;;4926941;29;20059;-84
2024/03/31 11:26:46;;;;;;;20.40;3.13;;;;;;;;;;4926873;29;20073;-84
2024/03/31 11:29:31;;;;;;;21.15;4.63;;;;;;;;;;4940071;28;20514;-84
2024/03/31 11:32:17;;;;;;;24.38;4.85;;;;;;;;;;4926613;29;20036;-84
2024/03/31 11:35:04;;;;;;;14.05;4.10;;;;;;;;;;4926343;29;20046;-84
2024/03/31 11:37:50;;;;;;;17.77;3.72;;;;;;;;;;4926310;29;20039;-84
2024/03/31 11:40:35;;;;;;;25.00;4.35;;;;;;;;;;4940149;29;20521;-84
2024/03/31 11:43:20;;;;;;;22.65;3.58;;;;;;;;;;4926597;29;20028;-84
2024/03/31 11:46:06;;;;;;;14.80;3.65;;;;;;;;;;4939822;29;20035;-84
2024/03/31 11:48:51;;;;;;;20.10;3.33;;;;;;;;;;4926631;29;20023;-84
2024/03/31 11:51:39;;;;;;;23.60;4.00;;;;;;;;;;4926260;29;20059;-84
2024/03/31 11:54:25;;;;;;;18.55;4.68;;;;;;;;;;4926240;29;20472;-85
2024/03/31 11:57:10;;;;;;;19.48;3.20;;;;;;;;;;4926527;29;20051;-83
2024/03/31 11:59:56;;;;;;;15.13;3.13;;;;;;;;;;4926052;29;20042;-85
2024/03/31 12:02:41;;;;;;;13.27;3.42;;;;;;;;;;4926481;29;20043;-86
2024/03/31 12:05:27;;;;;;;25.75;4.13;;;;;;;;;;4925985;29;20020;-84
2024/03/31 12:08:12;;;;;;;16.67;3.75;;;;;;;;;;4997177;28;20120;-84
2024/03/31 12:10:58;;;;;;;17.80;3.85;;;;;;;;;;4940395;29;20119;-86
2024/03/31 12:13:43;;;;;;;20.55;3.47;;;;;;;;;;4926319;29;20073;-84
2024/03/31 12:16:28;;;;;;;17.52;2.85;;;;;;;;;;4926694;29;20062;-85
2024/03/31 12:19:14;;;;;;;14.13;2.95;;;;;;;;;;4926102;29;20019;-85
2024/03/31 12:22:00;;;;;;;25.15;4.07;;;;;;;;;;4926243;29;20641;-85
2024/03/31 12:24:45;;;;;;;25.13;4.18;;;;;;;;;;4925811;29;20027;-83
2024/03/31 12:27:31;;;;;;;22.83;5.13;;;;;;;;;;4925998;29;20570;-84
2024/03/31 12:30:16;;;;;;;21.80;3.97;;;;;;;;;;4926363;29;20028;-85
2024/03/31 12:33:02;;;;;;;20.52;4.20;;;;;;;;;;4926954;29;20028;-85
2024/03/31 12:35:48;;;;;;;20.27;4.57;;;;;;;;;;4929014;29;20024;-85
2024/03/31 12:38:33;;;;;;;17.75;3.97;;;;;;;;;;4927009;29;20035;-85
2024/03/31 12:41:18;;;;;;;25.20;5.35;;;;;;;;;;4944357;29;20034;-84
2024/03/31 12:44:05;;;;;;;17.17;4.68;;;;;;;;;;4932020;29;20019;-84
2024/03/31 12:46:50;;;;;;;11.00;2.85;;;;;;;;;;4935777;28;20032;-83
2024/03/31 12:49:36;;;;;;;16.92;4.22;;;;;;;;;;4927054;29;20111;-85
2024/03/31 12:52:21;;;;;;;14.23;2.97;;;;;;;;;;4923387;28;20107;-85
2024/03/31 12:55:13;;;;;;;22.90;3.78;;;;;;;;;;4926310;29;20040;-84
2024/03/31 12:57:58;;;;;;;17.60;3.20;;;;;;;;;;4927169;28;20028;-85
2024/03/31 13:00:45;;;;;;;17.67;4.07;;;;;;;;;;4925491;29;20101;-85
2024/03/31 13:03:32;;;;;;;17.63;4.18;;;;;;;;;;4925707;29;20023;-84
2024/03/31 13:06:18;;;;;;;14.57;4.00;;;;;;;;;;4923780;29;20027;-84
2024/03/31 13:09:04;;;;;;;14.48;4.10;;;;;;;;;;4919693;29;20043;-84
2024/03/31 13:11:50;;;;;;;13.85;3.42;;;;;;;;;;4925472;29;20019;-84
2024/03/31 13:14:35;;;;;;;17.30;3.63;;;;;;;;;;4938918;29;20028;-83
2024/03/31 13:17:20;;;;;;;23.92;4.20;;;;;;;;;;4924950;29;20034;-83
2024/03/31 13:20:07;;;;;;;20.02;3.53;;;;;;;;;;4938663;29;20047;-84
2024/03/31 13:22:53;;;;;;;17.30;3.78;;;;;;;;;;4925577;29;20038;-85
2024/03/31 13:25:38;;;;;;;22.67;3.90;;;;;;;;;;4925434;29;20028;-84
2024/03/31 13:28:28;;;;;;;13.63;2.70;;;;;;;;;;4925033;29;20699;-84
2024/03/31 13:31:14;;;;;;;17.02;3.80;;;;;;;;;;4938409;29;20047;-85
2024/03/31 13:33:59;;;;;;;12.93;3.70;;;;;;;;;;4925578;29;20126;-84
2024/03/31 13:36:46;;;;;;;19.20;3.13;;;;;;;;;;4925072;29;20115;-85
2024/03/31 13:39:31;;;;;;;15.82;4.18;;;;;;;;;;4924721;29;20031;-83
2024/03/31 13:42:17;;;;;;;16.35;3.20;;;;;;;;;;4925006;29;20077;-83
2024/03/31 13:45:03;;;;;;;14.65;3.50;;;;;;;;;;4924821;29;20058;-84
2024/03/31 13:47:48;;;;;;;15.82;3.30;;;;;;;;;;4924820;29;20454;-84
2024/03/31 13:50:33;;;;;;;13.48;2.67;;;;;;;;;;4925355;29;20094;-84
2024/03/31 13:53:19;;;;;;;16.90;3.90;;;;;;;;;;4924865;29;20119;-84
2024/03/31 13:56:04;;;;;;;15.88;2.92;;;;;;;;;;4925175;29;20062;-84
2024/03/31 13:58:49;;;;;;;14.73;3.28;;;;;;;;;;4924687;29;20031;-84
2024/03/31 14:01:35;;;;;;;13.98;2.88;;;;;;;;;;4937778;28;20071;-84
2024/03/31 14:04:20;;;;;;;16.50;3.17;;;;;;;;;;4924882;29;20028;-84
2024/03/31 14:07:06;;;;;;;17.48;3.05;;;;;;;;;;4924653;29;20414;-84
2024/03/31 14:09:51;;;;;;;14.80;3.22;;;;;;;;;;4924510;29;20031;-84
2024/03/31 14:12:37;;;;;;;10.60;3.45;;;;;;;;;;4937383;29;20058;-84
2024/03/31 14:15:22;;;;;;;15.02;2.88;;;;;;;;;;4937490;29;20530;-84
2024/03/31 14:18:08;;;;;;;11.50;3.28;;;;;;;;;;4924768;29;20090;-84
2024/03/31 14:20:54;;;;;;;14.10;3.53;;;;;;;;;;4924305;29;20028;-85
2024/03/31 14:23:39;;;;;;;19.85;3.97;;;;;;;;;;4924825;29;20111;-84
2024/03/31 14:26:24;;;;;;;12.73;3.28;;;;;;;;;;4924367;29;20034;-83
2024/03/31 14:29:09;;;;;;;15.60;3.20;;;;;;;;;;4938011;28;20103;-83
2024/03/31 14:31:55;;;;;;;18.55;3.22;;;;;;;;;;4940589;29;20120;-85
2024/03/31 14:34:40;;;;;;;15.38;2.75;;;;;;;;;;4940301;29;20027;-86
2024/03/31 14:37:25;;;;;;;12.18;2.95;;;;;;;;;;4928050;29;20027;-83
2024/03/31 14:40:10;;;;;;;11.63;3.17;;;;;;;;;;4939084;29;20075;-83
2024/03/31 14:42:56;;;;;;;15.27;3.25;;;;;;;;;;4941066;29;20473;-85
2024/03/31 14:45:41;;;;;;;11.93;3.17;;;;;;;;;;4927785;29;20035;-85
2024/03/31 14:48:27;;;;;;;10.90;2.78;;;;;;;;;;4927215;29;20031;-84
2024/03/31 14:51:12;;;;;;;20.08;3.97;;;;;;;;;;4927445;29;20039;-84
2024/03/31 14:53:57;;;;;;;14.88;3.88;;;;;;;;;;4927806;29;20035;-85
2024/03/31 14:56:42;;;;;;;13.98;3.53;;;;;;;;;;4940552;29;20039;-85
2024/03/31 14:59:27;;;;;;;8.50;2.20;;;;;;;;;;4933129;29;20032;-85
2024/03/31 15:02:14;;;;;;;14.45;3.25;;;;;;;;;;4924228;29;20071;-85
2024/03/31 15:04:59;;;;;;;15.48;2.40;;;;;;;;;;4921705;29;20067;-84
2024/03/31 15:07:44;;;;;;;10.25;3.15;;;;;;;;;;4907965;29;20487;-85
2024/03/31 15:10:30;;;;;;;17.17;4.85;;;;;;;;;;4909044;29;20058;-85
2024/03/31 15:13:15;;;;;;;9.68;2.15;;;;;;;;;;4908257;29;20043;-85
2024/03/31 15:16:00;;;;;;;11.82;2.33;;;;;;;;;;4907514;29;20094;-85
2024/03/31 15:18:45;;;;;;;16.45;3.58;;;;;;;;;;4908204;28;20502;-85
2024/03/31 15:21:31;;;;;;;10.23;2.63;;;;;;;;;;4909105;29;20032;-85
2024/03/31 15:24:16;;;;;;;10.85;3.47;;;;;;;;;;4908105;29;20102;-85
2024/03/31 15:27:02;;;;;;;17.10;2.65;;;;;;;;;;4908006;29;20119;-85
2024/03/31 15:29:47;;;;;;;19.00;3.30;;;;;;;;;;4921265;28;20036;-85
2024/03/31 15:32:33;;;;;;;14.82;2.28;;;;;;;;;;4908033;29;20043;-86
2024/03/31 15:35:18;;;;;;;15.23;2.95;;;;;;;;;;4976904;28;20024;-84
2024/03/31 15:38:03;;;;;;;12.45;2.90;;;;;;;;;;4912445;29;20051;-85
2024/03/31 15:40:48;;;;;;;11.80;2.25;;;;;;;;;;4926458;29;20030;-86
2024/03/31 15:43:34;;;;;;;12.65;2.65;;;;;;;;;;4940390;29;20058;-84
2024/03/31 15:46:19;;;;;;;19.10;3.67;;;;;;;;;;4926626;29;20086;-85
2024/03/31 15:49:04;;;;;;;10.10;3.00;;;;;;;;;;4926964;29;20098;-85
2024/03/31 15:51:49;;;;;;;12.25;2.67;;;;;;;;;;4926198;29;20466;-85
2024/03/31 15:54:35;;;;;;;12.18;3.00;;;;;;;;;;4926407;29;20059;-86
2024/03/31 15:57:20;;;;;;;12.75;3.05;;;;;;;;;;4907556;29;20036;-86
2024/03/31 16:00:05;;;;;;;12.05;2.83;;;;;;;;;;4906686;29;20036;-86
2024/03/31 16:02:51;;;;;;;10.25;3.20;;;;;;;;;;4926131;29;20024;-85
2024/03/31 16:05:36;;;;;;;13.10;2.83;;;;;;;;;;4926820;29;20044;-86
2024/03/31 16:08:23;;;;;;;15.50;3.60;;;;;;;;;;4939465;29;20478;-85
2024/03/31 16:11:08;;;;;;;9.82;2.72;;;;;;;;;;4926323;29;20055;-85
2024/03/31 16:13:55;;;;;;;9.63;3.20;;;;;;;;;;4926099;29;20471;-85
2024/03/31 16:16:40;;;;;;;14.82;3.25;;;;;;;;;;4925608;29;20138;-85
2024/03/31 16:19:26;;;;;;;14.90;3.33;;;;;;;;;;4925871;29;20035;-85